Time;durP1;ratioP1;P1;durP2;ratioP2;P2;SDS_P1;SDS_P2;PMS_P1;PMS_P2;Temp;Humidity;BMP_temperature;BMP_pressure;BME280_temperature;BME280_humidity;BME280_pressure;Samples;Min_cycle;Max_cycle;Signal;HPM_P1;HPM_P2
2023/01/31 00:01:20;;;;;;;;;;;;;;;;;;4937983;28;19921;-70
2023/01/31 00:03:49;;;;;;;;;;;;;;;;;;4937279;28;20358;-71
2023/01/31 00:06:15;;;;;;;;;;;;;;;;;;4916885;28;19918;-70
2023/01/31 00:08:41;;;;;;;;;;;;;;;;;;4937299;28;19913;-69
2023/01/31 00:11:07;;;;;;;;;;;;;;;;;;4933917;28;20459;-70
2023/01/31 00:13:33;;;;;;;;;;;;;;;;;;4915714;28;19925;-71
2023/01/31 00:15:59;;;;;;;;;;;;;;;;;;4932791;28;20282;-70
2023/01/31 00:18:25;;;;;;;;;;;;;;;;;;4920506;28;20511;-70
2023/01/31 00:20:51;;;;;;;;;;;;;;;;;;4931212;28;20236;-71
2023/01/31 00:23:17;;;;;;;;;;;;;;;;;;4935778;28;19915;-70
2023/01/31 00:25:43;;;;;;;;;;;;;;;;;;4917111;28;20419;-70
2023/01/31 00:28:09;;;;;;;;;;;;;;;;;;4932484;28;21089;-70
2023/01/31 00:30:35;;;;;;;;;;;;;;;;;;4935924;28;20054;-71
2023/01/31 00:33:01;;;;;;;;;;;;;;;;;;4933694;28;20424;-70
2023/01/31 00:35:27;;;;;;;;;;;;;;;;;;4919177;28;21238;-70
2023/01/31 00:37:53;;;;;;;;;;;;;;;;;;4914573;28;19918;-69
2023/01/31 00:40:19;;;;;;;;;;;;;;;;;;4930712;28;19921;-71
2023/01/31 00:42:45;;;;;;;;;;;;;;;;;;4933770;28;19914;-70
2023/01/31 00:45:11;;;;;;;;;;;;;;;;;;4911196;28;19921;-70
2023/01/31 00:47:37;;;;;;;;;;;;;;;;;;4934993;28;20123;-70
2023/01/31 00:50:03;;;;;;;;;;;;;;;;;;4913159;28;19914;-71
2023/01/31 00:52:29;;;;;;;;;;;;;;;;;;4914166;28;19918;-70
2023/01/31 00:54:55;;;;;;;;;;;;;;;;;;4929439;28;19922;-71
2023/01/31 00:57:21;;;;;;;;;;;;;;;;;;4917269;28;20390;-70
2023/01/31 00:59:47;;;;;;;;;;;;;;;;;;4928287;28;19914;-71
2023/01/31 01:02:13;;;;;;;;;;;;;;;;;;4927501;28;19921;-70
2023/01/31 01:04:39;;;;;;;;;;;;;;;;;;4929458;28;20018;-70
2023/01/31 01:07:05;;;;;;;;;;;;;;;;;;4928926;28;20431;-70
2023/01/31 01:09:31;;;;;;;;;;;;;;;;;;4916024;28;20031;-69
2023/01/31 01:11:57;;;;;;;;;;;;;;;;;;4935603;28;19921;-70
2023/01/31 01:14:23;;;;;;;;;;;;;;;;;;4936118;28;20611;-69
2023/01/31 01:16:49;;;;;;;;;;;;;;;;;;4935273;28;19949;-70
2023/01/31 01:19:15;;;;;;;;;;;;;;;;;;4919458;28;20239;-70
2023/01/31 01:21:43;;;;;;;;;;;;;;;;;;4935859;28;20044;-70
2023/01/31 01:24:09;;;;;;;;;;;;;;;;;;4933930;28;20379;-70
2023/01/31 01:26:35;;;;;;;;;;;;;;;;;;4938333;28;19921;-70
2023/01/31 01:29:01;;;;;;;;;;;;;;;;;;4933002;28;19953;-72
2023/01/31 01:31:29;;;;;;;;;;;;;;;;;;4934039;28;19921;-72
2023/01/31 01:33:56;;;;;;;;;;;;;;;;;;4914065;28;19918;-71
2023/01/31 01:36:24;;;;;;;;;;;;;;;;;;4917788;28;19922;-72
2023/01/31 01:38:50;;;;;;;;;;;;;;;;;;4914218;28;19914;-70
2023/01/31 01:41:16;;;;;;;;;;;;;;;;;;4918361;28;19917;-70
2023/01/31 01:43:42;;;;;;;;;;;;;;;;;;4934628;28;20289;-70
2023/01/31 01:46:08;;;;;;;;;;;;;;;;;;4935792;28;19910;-70
2023/01/31 01:48:34;;;;;;;;;;;;;;;;;;4932213;28;20009;-70
2023/01/31 01:51:00;;;;;;;;;;;;;;;;;;4918539;28;19914;-70
2023/01/31 01:53:26;;;;;;;;;;;;;;;;;;4918429;28;19977;-70
2023/01/31 01:55:52;;;;;;;;;;;;;;;;;;4931561;28;20415;-70
2023/01/31 01:58:19;;;;;;;;;;;;;;;;;;4921857;28;20487;-70
2023/01/31 02:00:44;;;;;;;;;;;;;;;;;;4936773;28;19915;-70
2023/01/31 02:03:10;;;;;;;;;;;;;;;;;;4932622;28;19962;-70
2023/01/31 02:05:36;;;;;;;;;;;;;;;;;;4920425;28;19922;-70
2023/01/31 02:08:02;;;;;;;;;;;;;;;;;;4931940;28;19913;-71
2023/01/31 02:10:28;;;;;;;;;;;;;;;;;;4923073;28;19913;-71
2023/01/31 02:12:54;;;;;;;;;;;;;;;;;;4931340;28;19985;-71
2023/01/31 02:15:20;;;;;;;;;;;;;;;;;;4936153;28;19914;-71
2023/01/31 02:17:46;;;;;;;;;;;;;;;;;;4933659;28;20028;-71
2023/01/31 02:20:12;;;;;;;;;;;;;;;;;;4931847;28;19925;-70
2023/01/31 02:22:38;;;;;;;;;;;;;;;;;;4932458;28;19918;-69
2023/01/31 02:25:04;;;;;;;;;;;;;;;;;;4917021;28;19988;-69
2023/01/31 02:27:30;;;;;;;;;;;;;;;;;;4934960;28;20826;-70
2023/01/31 02:29:56;;;;;;;;;;;;;;;;;;4918177;28;19917;-70
2023/01/31 02:32:22;;;;;;;;;;;;;;;;;;4918768;28;19914;-70
2023/01/31 02:34:48;;;;;;;;;;;;;;;;;;4932273;28;20281;-71
2023/01/31 02:37:14;;;;;;;;;;;;;;;;;;4915184;28;20439;-70
2023/01/31 02:39:40;;;;;;;;;;;;;;;;;;4935387;28;20262;-70
2023/01/31 02:42:06;;;;;;;;;;;;;;;;;;4931248;28;20183;-70
2023/01/31 02:47:16;;;;;;;;;;;;;;;;;;4937716;28;19924;-70
2023/01/31 02:49:42;;;;;;;;;;;;;;;;;;4921398;28;19910;-71
2023/01/31 02:52:17;;;;;;;;;;;;;;;;;;4931991;28;19961;-70
2023/01/31 02:57:28;;;;;;;;;;;;;;;;;;4937952;28;19973;-70
2023/01/31 02:59:55;;;;;;;;;;;;;;;;;;4935475;28;19914;-70
2023/01/31 03:02:21;;;;;;;;;;;;;;;;;;4919282;28;19911;-70
2023/01/31 03:04:47;;;;;;;;;;;;;;;;;;4934839;28;19925;-70
2023/01/31 03:07:13;;;;;;;;;;;;;;;;;;4918880;28;20412;-70
2023/01/31 03:09:39;;;;;;;;;;;;;;;;;;4937476;28;19914;-71
2023/01/31 03:12:05;;;;;;;;;;;;;;;;;;4935657;28;20297;-70
2023/01/31 03:14:31;;;;;;;;;;;;;;;;;;4936943;28;19921;-70
2023/01/31 03:19:42;;;;;;;;;;;;;;;;;;4939999;28;19965;-70
2023/01/31 03:22:08;;;;;;;;;;;;;;;;;;4935580;28;20186;-70
2023/01/31 03:24:34;;;;;;;;;;;;;;;;;;4923436;28;19980;-70
2023/01/31 03:27:03;;;;;;;;;;;;;;;;;;4936085;28;20026;-70
2023/01/31 03:29:29;;;;;;;;;;;;;;;;;;4941222;28;20016;-70
2023/01/31 03:31:55;;;;;;;;;;;;;;;;;;4919491;28;19918;-70
2023/01/31 03:34:21;;;;;;;;;;;;;;;;;;4937108;28;20373;-70
2023/01/31 03:36:47;;;;;;;;;;;;;;;;;;4936550;28;20001;-70
2023/01/31 03:39:13;;;;;;;;;;;;;;;;;;4938218;28;19957;-70
2023/01/31 03:41:39;;;;;;;;;;;;;;;;;;4939557;28;20277;-70
2023/01/31 03:44:05;;;;;;;;;;;;;;;;;;4934630;28;19914;-70
2023/01/31 03:46:31;;;;;;;;;;;;;;;;;;4922263;28;19914;-70
2023/01/31 03:48:57;;;;;;;;;;;;;;;;;;4922378;28;20310;-70
2023/01/31 03:51:23;;;;;;;;;;;;;;;;;;4937032;28;20985;-70
2023/01/31 03:53:49;;;;;;;;;;;;;;;;;;4937152;28;20246;-70
2023/01/31 03:56:15;;;;;;;;;;;;;;;;;;4922131;28;19914;-71
2023/01/31 03:58:41;;;;;;;;;;;;;;;;;;4923785;28;20251;-71
2023/01/31 04:01:07;;;;;;;;;;;;;;;;;;4934736;28;19937;-71
2023/01/31 04:03:33;;;;;;;;;;;;;;;;;;4920892;28;19914;-71
2023/01/31 04:05:59;;;;;;;;;;;;;;;;;;4934805;28;19925;-70
2023/01/31 04:08:25;;;;;;;;;;;;;;;;;;4926385;28;20777;-70
2023/01/31 04:10:51;;;;;;;;;;;;;;;;;;4919824;28;20645;-71
2023/01/31 04:13:17;;;;;;;;;;;;;;;;;;4937283;28;20665;-70
2023/01/31 04:15:43;;;;;;;;;;;;;;;;;;4921406;28;19914;-70
2023/01/31 04:18:09;;;;;;;;;;;;;;;;;;4935689;28;19978;-70
2023/01/31 04:20:35;;;;;;;;;;;;;;;;;;4935590;28;20288;-70
2023/01/31 04:23:01;;;;;;;;;;;;;;;;;;4932587;28;19921;-70
2023/01/31 04:25:27;;;;;;;;;;;;;;;;;;4916971;28;20453;-71
2023/01/31 04:27:53;;;;;;;;;;;;;;;;;;4920114;28;19914;-71
2023/01/31 04:30:19;;;;;;;;;;;;;;;;;;4937418;28;19921;-70
2023/01/31 04:32:45;;;;;;;;;;;;;;;;;;4937796;28;19914;-71
2023/01/31 04:35:10;;;;;;;;;;;;;;;;;;4929904;28;20589;-70
2023/01/31 04:37:36;;;;;;;;;;;;;;;;;;4921862;28;20354;-70
2023/01/31 04:40:02;;;;;;;;;;;;;;;;;;4934880;28;19914;-70
2023/01/31 04:42:28;;;;;;;;;;;;;;;;;;4923369;28;19914;-70
2023/01/31 04:44:54;;;;;;;;;;;;;;;;;;4935393;28;20368;-70
2023/01/31 04:47:20;;;;;;;;;;;;;;;;;;4938583;28;20354;-69
2023/01/31 04:49:46;;;;;;;;;;;;;;;;;;4933963;28;19914;-70
2023/01/31 04:52:12;;;;;;;;;;;;;;;;;;4933626;28;20273;-70
2023/01/31 04:54:38;;;;;;;;;;;;;;;;;;4936506;28;20441;-70
2023/01/31 04:57:04;;;;;;;;;;;;;;;;;;4916116;28;19924;-70
2023/01/31 04:59:30;;;;;;;;;;;;;;;;;;4919426;28;19918;-70
2023/01/31 05:01:56;;;;;;;;;;;;;;;;;;4916744;28;19925;-70
2023/01/31 05:04:22;;;;;;;;;;;;;;;;;;4938101;28;19921;-70
2023/01/31 05:06:48;;;;;;;;;;;;;;;;;;4933393;28;19925;-71
2023/01/31 05:09:15;;;;;;;;;;;;;;;;;;4932656;28;20714;-70
2023/01/31 05:11:41;;;;;;;;;;;;;;;;;;4919653;28;19911;-70
2023/01/31 05:14:07;;;;;;;;;;;;;;;;;;4933002;28;20385;-70
2023/01/31 05:16:33;;;;;;;;;;;;;;;;;;4937141;28;20435;-70
2023/01/31 05:18:59;;;;;;;;;;;;;;;;;;4934393;28;20296;-71
2023/01/31 05:21:25;;;;;;;;;;;;;;;;;;4933194;28;20325;-70
2023/01/31 05:23:51;;;;;;;;;;;;;;;;;;4931999;28;20264;-71
2023/01/31 05:26:17;;;;;;;;;;;;;;;;;;4931843;28;19918;-71
2023/01/31 05:28:43;;;;;;;;;;;;;;;;;;4935445;28;19972;-70
2023/01/31 05:31:10;;;;;;;;;;;;;;;;;;4933757;28;19918;-70
2023/01/31 05:33:36;;;;;;;;;;;;;;;;;;4935518;28;19918;-71
2023/01/31 05:36:02;;;;;;;;;;;;;;;;;;4914260;28;20002;-70
2023/01/31 05:38:28;;;;;;;;;;;;;;;;;;4939685;28;19918;-71
2023/01/31 05:40:54;;;;;;;;;;;;;;;;;;4931491;28;20235;-70
2023/01/31 05:43:20;;;;;;;;;;;;;;;;;;4934673;28;19914;-70
2023/01/31 05:45:46;;;;;;;;;;;;;;;;;;4936409;28;19914;-70
2023/01/31 05:48:12;;;;;;;;;;;;;;;;;;4931344;28;20494;-72
2023/01/31 05:50:38;;;;;;;;;;;;;;;;;;4939217;28;19918;-70
2023/01/31 05:53:04;;;;;;;;;;;;;;;;;;4933656;28;19929;-70
2023/01/31 05:55:30;;;;;;;;;;;;;;;;;;4939085;28;19944;-70
2023/01/31 05:57:56;;;;;;;;;;;;;;;;;;4934932;28;19917;-71
2023/01/31 06:00:22;;;;;;;;;;;;;;;;;;4918868;28;20399;-70
2023/01/31 06:02:48;;;;;;;;;;;;;;;;;;4919663;28;20037;-70
2023/01/31 06:05:14;;;;;;;;;;;;;;;;;;4937377;28;19921;-71
2023/01/31 06:07:40;;;;;;;;;;;;;;;;;;4921301;28;19918;-70
2023/01/31 06:10:06;;;;;;;;;;;;;;;;;;4917484;28;20020;-71
2023/01/31 06:12:32;;;;;;;;;;;;;;;;;;4919806;28;20385;-71
2023/01/31 06:14:58;;;;;;;;;;;;;;;;;;4918637;28;20224;-71
2023/01/31 06:17:24;;;;;;;;;;;;;;;;;;4922481;28;19918;-71
2023/01/31 06:19:50;;;;;;;;;;;;;;;;;;4933965;28;19918;-71
2023/01/31 06:22:16;;;;;;;;;;;;;;;;;;4927582;28;19940;-70
2023/01/31 06:24:42;;;;;;;;;;;;;;;;;;4928938;28;20335;-70
2023/01/31 06:27:08;;;;;;;;;;;;;;;;;;4943583;28;20031;-70
2023/01/31 06:29:34;;;;;;;;;;;;;;;;;;4921847;28;19918;-68
2023/01/31 06:32:00;;;;;;;;;;;;;;;;;;4939626;28;19941;-70
2023/01/31 06:34:26;;;;;;;;;;;;;;;;;;4940556;28;19973;-69
2023/01/31 06:36:52;;;;;;;;;;;;;;;;;;4935962;28;19922;-70
2023/01/31 06:39:18;;;;;;;;;;;;;;;;;;4925613;28;20028;-70
2023/01/31 06:41:44;;;;;;;;;;;;;;;;;;4922319;28;19918;-70
2023/01/31 06:44:10;;;;;;;;;;;;;;;;;;4936515;28;20692;-70
2023/01/31 06:46:37;;;;;;;;;;;;;;;;;;4922580;28;19925;-70
2023/01/31 06:49:03;;;;;;;;;;;;;;;;;;4916845;28;19915;-70
2023/01/31 06:51:29;;;;;;;;;;;;;;;;;;4939562;28;19914;-70
2023/01/31 06:53:55;;;;;;;;;;;;;;;;;;4940232;28;20280;-69
2023/01/31 06:56:21;;;;;;;;;;;;;;;;;;4920024;28;20044;-70
2023/01/31 06:58:47;;;;;;;;;;;;;;;;;;4942628;28;20791;-71
2023/01/31 07:01:13;;;;;;;;;;;;;;;;;;4936287;28;20261;-71
2023/01/31 07:03:39;;;;;;;;;;;;;;;;;;4939329;28;19914;-71
2023/01/31 07:06:05;;;;;;;;;;;;;;;;;;4939644;28;20384;-71
2023/01/31 07:08:31;;;;;;;;;;;;;;;;;;4928663;28;20195;-70
2023/01/31 07:10:57;;;;;;;;;;;;;;;;;;4938790;28;19914;-70
2023/01/31 07:13:23;;;;;;;;;;;;;;;;;;4938529;28;19914;-70
2023/01/31 07:15:49;;;;;;;;;;;;;;;;;;4938667;28;19937;-70
2023/01/31 07:18:15;;;;;;;;;;;;;;;;;;4925504;28;19918;-70
2023/01/31 07:20:41;;;;;;;;;;;;;;;;;;4936772;28;19953;-70
2023/01/31 07:23:07;;;;;;;;;;;;;;;;;;4935102;28;20013;-70
2023/01/31 07:25:33;;;;;;;;;;;;;;;;;;4920145;28;19925;-69
2023/01/31 07:27:59;;;;;;;;;;;;;;;;;;4923066;28;19914;-72
2023/01/31 07:30:25;;;;;;;;;;;;;;;;;;4935344;28;19923;-72
2023/01/31 07:32:51;;;;;;;;;;;;;;;;;;4919375;28;20479;-69
2023/01/31 07:35:17;;;;;;;;;;;;;;;;;;4920817;28;20054;-70
2023/01/31 07:37:44;;;;;;;;;;;;;;;;;;4937548;28;20399;-70
2023/01/31 07:40:10;;;;;;;;;;;;;;;;;;4937029;28;20712;-71
2023/01/31 07:42:36;;;;;;;;;;;;;;;;;;4935936;28;19934;-70
2023/01/31 07:45:02;;;;;;;;;;;;;;;;;;4933679;28;19933;-71
2023/01/31 07:47:28;;;;;;;;;;;;;;;;;;4937468;28;19910;-72
2023/01/31 07:49:54;;;;;;;;;;;;;;;;;;4935378;28;19921;-71
2023/01/31 07:52:20;;;;;;;;;;;;;;;;;;4940124;28;19936;-70
2023/01/31 07:54:46;;;;;;;;;;;;;;;;;;4938696;28;20265;-70
2023/01/31 07:57:12;;;;;;;;;;;;;;;;;;4915785;28;19918;-72
2023/01/31 07:59:38;;;;;;;;;;;;;;;;;;4935150;28;19925;-70
2023/01/31 08:04:49;;;;;;;;;;;;;;;;;;4936352;28;19925;-71
2023/01/31 08:07:15;;;;;;;;;;;;;;;;;;4920466;28;20293;-70
2023/01/31 08:09:42;;;;;;;;;;;;;;;;;;4938606;28;20376;-71
2023/01/31 08:12:08;;;;;;;;;;;;;;;;;;4932345;28;19958;-70
2023/01/31 08:14:34;;;;;;;;;;;;;;;;;;4939693;28;20008;-71
2023/01/31 08:17:00;;;;;;;;;;;;;;;;;;4915420;28;19918;-71
2023/01/31 08:19:26;;;;;;;;;;;;;;;;;;4935848;28;19918;-70
2023/01/31 08:21:52;;;;;;;;;;;;;;;;;;4933867;28;20467;-70
2023/01/31 08:24:18;;;;;;;;;;;;;;;;;;4939882;28;19989;-70
2023/01/31 08:26:44;;;;;;;;;;;;;;;;;;4939447;28;20425;-71
2023/01/31 08:29:10;;;;;;;;;;;;;;;;;;4936203;28;22224;-71
2023/01/31 08:31:36;;;;;;;;;;;;;;;;;;4936774;28;19961;-71
2023/01/31 08:34:02;;;;;;;;;;;;;;;;;;4935622;28;19918;-71
2023/01/31 08:36:30;;;;;;;;;;;;;;;;;;4938170;28;20444;-71
2023/01/31 08:38:56;;;;;;;;;;;;;;;;;;4936031;28;19949;-71
2023/01/31 08:41:22;;;;;;;;;;;;;;;;;;4935811;28;20646;-71
2023/01/31 08:43:48;;;;;;;;;;;;;;;;;;4936915;28;19914;-72
2023/01/31 08:46:14;;;;;;;;;;;;;;;;;;4932971;28;19918;-71
2023/01/31 08:48:41;;;;;;;;;;;;;;;;;;4921730;28;19914;-72
2023/01/31 08:51:07;;;;;;;;;;;;;;;;;;4935993;28;19965;-71
2023/01/31 08:53:33;;;;;;;;;;;;;;;;;;4936043;28;20408;-70
2023/01/31 08:55:59;;;;;;;;;;;;;;;;;;4936207;28;19965;-72
2023/01/31 08:58:25;;;;;;;;;;;;;;;;;;4925764;28;20021;-71
2023/01/31 09:00:51;;;;;;;;;;;;;;;;;;4925269;28;20656;-71
2023/01/31 09:03:17;;;;;;;;;;;;;;;;;;4934721;28;20033;-71
2023/01/31 09:05:43;;;;;;;;;;;;;;;;;;4938845;28;19925;-73
2023/01/31 09:08:09;;;;;;;;;;;;;;;;;;4933584;28;20468;-73
2023/01/31 09:10:35;;;;;;;;;;;;;;;;;;4936556;28;20046;-72
2023/01/31 09:13:00;;;;;;;;;;;;;;;;;;4933571;28;19914;-72
2023/01/31 09:15:26;;;;;;;;;;;;;;;;;;4936733;28;20473;-72
2023/01/31 09:17:52;;;;;;;;;;;;;;;;;;4932210;28;19922;-72
2023/01/31 09:20:20;;;;;;;;;;;;;;;;;;4916101;28;19989;-70
2023/01/31 09:22:46;;;;;;;;;;;;;;;;;;4936697;28;20028;-71
2023/01/31 09:25:12;;;;;;;;;;;;;;;;;;4933762;28;19914;-71
2023/01/31 09:27:38;;;;;;;;;;;;;;;;;;4937018;28;20384;-71
2023/01/31 09:30:04;;;;;;;;;;;;;;;;;;4933010;28;19968;-71
2023/01/31 09:32:31;;;;;;;;;;;;;;;;;;4935525;28;20357;-72
2023/01/31 09:34:57;;;;;;;;;;;;;;;;;;4920848;28;20424;-71
2023/01/31 09:37:23;;;;;;;;;;;;;;;;;;4935108;28;19922;-72
2023/01/31 09:39:49;;;;;;;;;;;;;;;;;;4936022;28;19918;-71
2023/01/31 09:42:15;;;;;;;;;;;;;;;;;;4935682;28;20383;-72
2023/01/31 09:44:41;;;;;;;;;;;;;;;;;;4934210;28;19914;-71
2023/01/31 09:47:07;;;;;;;;;;;;;;;;;;4932316;28;19914;-71
2023/01/31 09:49:33;;;;;;;;;;;;;;;;;;4936510;28;19914;-70
2023/01/31 09:51:59;;;;;;;;;;;;;;;;;;4914584;28;19968;-73
2023/01/31 09:54:25;;;;;;;;;;;;;;;;;;4935798;28;19976;-71
2023/01/31 09:56:51;;;;;;;;;;;;;;;;;;4932167;28;19918;-72
2023/01/31 09:59:17;;;;;;;;;;;;;;;;;;4935534;28;20004;-71
2023/01/31 10:01:43;;;;;;;;;;;;;;;;;;4941517;28;19914;-72
2023/01/31 10:04:09;;;;;;;;;;;;;;;;;;4935605;28;20020;-73
2023/01/31 10:06:35;;;;;;;;;;;;;;;;;;4922769;28;19914;-72
2023/01/31 10:09:02;;;;;;;;;;;;;;;;;;4920610;28;20171;-72
2023/01/31 10:11:28;;;;;;;;;;;;;;;;;;4926066;28;20353;-71
2023/01/31 10:13:54;;;;;;;;;;;;;;;;;;4936758;28;20349;-72
2023/01/31 10:16:20;;;;;;;;;;;;;;;;;;4933376;28;19914;-72
2023/01/31 10:18:46;;;;;;;;;;;;;;;;;;4937486;28;19914;-72
2023/01/31 10:21:12;;;;;;;;;;;;;;;;;;4940302;28;20148;-71
2023/01/31 10:23:38;;;;;;;;;;;;;;;;;;4922046;28;20351;-72
2023/01/31 10:26:05;;;;;;;;;;;;;;;;;;4935874;28;19913;-71
2023/01/31 10:28:31;;;;;;;;;;;;;;;;;;4923114;28;20488;-71
2023/01/31 10:30:57;;;;;;;;;;;;;;;;;;4938337;28;19922;-72
2023/01/31 10:33:23;;;;;;;;;;;;;;;;;;4940575;28;19914;-71
2023/01/31 10:35:48;;;;;;;;;;;;;;;;;;4921931;28;20300;-71
2023/01/31 10:38:14;;;;;;;;;;;;;;;;;;4919585;28;19965;-71
2023/01/31 10:40:40;;;;;;;;;;;;;;;;;;4940998;28;20436;-72
2023/01/31 10:43:06;;;;;;;;;;;;;;;;;;4935525;28;19913;-71
2023/01/31 10:45:32;;;;;;;;;;;;;;;;;;4938383;28;19974;-71
2023/01/31 10:48:00;;;;;;;;;;;;;;;;;;4919865;28;20588;-72
2023/01/31 10:50:26;;;;;;;;;;;;;;;;;;4920264;28;19966;-72
2023/01/31 10:52:52;;;;;;;;;;;;;;;;;;4939232;28;19918;-73
2023/01/31 10:55:18;;;;;;;;;;;;;;;;;;4919049;28;20388;-73
2023/01/31 10:57:44;;;;;;;;;;;;;;;;;;4922110;28;19918;-73
2023/01/31 11:00:10;;;;;;;;;;;;;;;;;;4937042;28;19925;-73
2023/01/31 11:02:36;;;;;;;;;;;;;;;;;;4940794;28;20480;-73
2023/01/31 11:05:03;;;;;;;;;;;;;;;;;;4936333;28;20221;-73
2023/01/31 11:07:29;;;;;;;;;;;;;;;;;;4936362;28;20033;-73
2023/01/31 11:09:56;;;;;;;;;;;;;;;;;;4936515;28;19922;-73
2023/01/31 11:12:22;;;;;;;;;;;;;;;;;;4922541;28;20376;-72
2023/01/31 11:14:48;;;;;;;;;;;;;;;;;;4939778;28;19914;-73
2023/01/31 11:17:14;;;;;;;;;;;;;;;;;;4938005;28;20106;-73
2023/01/31 11:19:40;;;;;;;;;;;;;;;;;;4919140;28;19998;-73
2023/01/31 11:22:06;;;;;;;;;;;;;;;;;;4933275;28;19997;-74
2023/01/31 11:24:32;;;;;;;;;;;;;;;;;;4939666;28;20384;-72
2023/01/31 11:26:58;;;;;;;;;;;;;;;;;;4922431;28;20043;-71
2023/01/31 11:29:23;;;;;;;;;;;;;;;;;;4923081;28;19925;-72
2023/01/31 11:31:49;;;;;;;;;;;;;;;;;;4923754;28;19921;-72
2023/01/31 11:34:15;;;;;;;;;;;;;;;;;;4934849;28;20303;-72
2023/01/31 11:36:41;;;;;;;;;;;;;;;;;;4938615;28;20482;-72
2023/01/31 11:39:07;;;;;;;;;;;;;;;;;;4937212;28;19918;-72
2023/01/31 11:41:33;;;;;;;;;;;;;;;;;;4941268;28;20334;-72
2023/01/31 11:43:59;;;;;;;;;;;;;;;;;;4918931;28;19918;-73
2023/01/31 11:46:25;;;;;;;;;;;;;;;;;;4938989;28;19914;-72
2023/01/31 11:48:51;;;;;;;;;;;;;;;;;;4939050;28;20256;-72
2023/01/31 11:51:17;;;;;;;;;;;;;;;;;;4934599;28;20415;-72
2023/01/31 11:53:43;;;;;;;;;;;;;;;;;;4942243;28;20360;-71
2023/01/31 11:56:09;;;;;;;;;;;;;;;;;;4937195;28;20336;-74
2023/01/31 11:58:35;;;;;;;;;;;;;;;;;;4940063;28;19922;-72
2023/01/31 12:01:01;;;;;;;;;;;;;;;;;;4926194;28;19914;-73
2023/01/31 12:03:27;;;;;;;;;;;;;;;;;;4936906;28;20388;-73
2023/01/31 12:05:53;;;;;;;;;;;;;;;;;;4939651;28;20016;-73
2023/01/31 12:08:19;;;;;;;;;;;;;;;;;;4939428;28;19913;-74
2023/01/31 12:10:46;;;;;;;;;;;;;;;;;;4938874;28;20004;-74
2023/01/31 12:13:12;;;;;;;;;;;;;;;;;;4935773;28;19920;-74
2023/01/31 12:15:38;;;;;;;;;;;;;;;;;;4939747;28;19920;-75
2023/01/31 12:18:04;;;;;;;;;;;;;;;;;;4918588;28;19918;-74
2023/01/31 12:20:29;;;;;;;;;;;;;;;;;;4938669;28;19914;-75
2023/01/31 12:22:55;;;;;;;;;;;;;;;;;;4920974;28;19924;-75
2023/01/31 12:25:21;;;;;;;;;;;;;;;;;;4923426;28;19917;-75
2023/01/31 12:27:47;;;;;;;;;;;;;;;;;;4938114;28;19918;-75
2023/01/31 12:30:13;;;;;;;;;;;;;;;;;;4933201;28;20427;-74
2023/01/31 12:32:39;;;;;;;;;;;;;;;;;;4935436;28;19949;-74
2023/01/31 12:35:05;;;;;;;;;;;;;;;;;;4922950;28;20055;-74
2023/01/31 12:37:31;;;;;;;;;;;;;;;;;;4935896;28;20376;-73
2023/01/31 12:40:01;;;;;;;;;;;;;;;;;;4919676;28;19918;-75
2023/01/31 12:42:27;;;;;;;;;;;;;;;;;;4934903;28;19918;-73
2023/01/31 12:44:53;;;;;;;;;;;;;;;;;;4930896;28;19913;-73
2023/01/31 12:47:19;;;;;;;;;;;;;;;;;;4935795;28;19918;-74
2023/01/31 12:49:45;;;;;;;;;;;;;;;;;;4934623;28;20374;-74
2023/01/31 12:52:11;;;;;;;;;;;;;;;;;;4917815;28;20009;-76
2023/01/31 12:54:37;;;;;;;;;;;;;;;;;;4934440;28;19968;-73
2023/01/31 12:57:03;;;;;;;;;;;;;;;;;;4929915;28;20040;-74
2023/01/31 12:59:29;;;;;;;;;;;;;;;;;;4937290;28;20365;-73
2023/01/31 13:01:55;;;;;;;;;;;;;;;;;;4916643;28;19914;-73
2023/01/31 13:04:21;;;;;;;;;;;;;;;;;;4920657;28;19948;-74
2023/01/31 13:06:47;;;;;;;;;;;;;;;;;;4936559;28;19920;-74
2023/01/31 13:09:13;;;;;;;;;;;;;;;;;;4918215;28;19910;-75
2023/01/31 13:11:39;;;;;;;;;;;;;;;;;;4922353;28;20437;-74
2023/01/31 13:14:05;;;;;;;;;;;;;;;;;;4931659;28;20475;-75
2023/01/31 13:16:31;;;;;;;;;;;;;;;;;;4936552;28;19922;-74
2023/01/31 13:18:57;;;;;;;;;;;;;;;;;;4934838;28;19948;-74
2023/01/31 13:21:25;;;;;;;;;;;;;;;;;;4936622;28;19919;-74
2023/01/31 13:23:51;;;;;;;;;;;;;;;;;;4936072;28;20381;-74
2023/01/31 13:26:17;;;;;;;;;;;;;;;;;;4920978;28;19991;-74
2023/01/31 13:28:44;;;;;;;;;;;;;;;;;;4937779;28;19918;-73
2023/01/31 13:31:10;;;;;;;;;;;;;;;;;;4918431;28;21554;-75
2023/01/31 13:33:36;;;;;;;;;;;;;;;;;;4932229;28;20112;-74
2023/01/31 13:36:02;;;;;;;;;;;;;;;;;;4936526;28;20126;-76
2023/01/31 13:38:28;;;;;;;;;;;;;;;;;;4919987;28;19929;-74
2023/01/31 13:40:54;;;;;;;;;;;;;;;;;;4934348;28;20444;-75
2023/01/31 13:43:20;;;;;;;;;;;;;;;;;;4936797;28;20737;-75
2023/01/31 13:45:47;;;;;;;;;;;;;;;;;;4918508;28;19918;-75
2023/01/31 13:48:13;;;;;;;;;;;;;;;;;;4918612;28;20360;-75
2023/01/31 13:50:40;;;;;;;;;;;;;;;;;;4919547;28;19913;-74
2023/01/31 13:53:07;;;;;;;;;;;;;;;;;;4931861;28;19926;-75
2023/01/31 13:55:33;;;;;;;;;;;;;;;;;;4933446;28;20395;-74
2023/01/31 13:57:59;;;;;;;;;;;;;;;;;;4932258;28;20072;-75
2023/01/31 14:00:25;;;;;;;;;;;;;;;;;;4932289;28;20342;-75
2023/01/31 14:02:51;;;;;;;;;;;;;;;;;;4934829;28;20633;-74
2023/01/31 14:05:17;;;;;;;;;;;;;;;;;;4917189;28;19926;-74
2023/01/31 14:07:43;;;;;;;;;;;;;;;;;;4935326;28;19956;-73
2023/01/31 14:10:09;;;;;;;;;;;;;;;;;;4933290;28;19914;-74
2023/01/31 14:12:35;;;;;;;;;;;;;;;;;;4915530;28;20350;-74
2023/01/31 14:15:01;;;;;;;;;;;;;;;;;;4914539;28;19914;-73
2023/01/31 14:17:27;;;;;;;;;;;;;;;;;;4935449;28;19918;-73
2023/01/31 14:19:54;;;;;;;;;;;;;;;;;;4931890;28;20073;-74
2023/01/31 14:22:20;;;;;;;;;;;;;;;;;;4917314;28;21094;-74
2023/01/31 14:24:46;;;;;;;;;;;;;;;;;;4916275;28;19914;-73
2023/01/31 14:27:12;;;;;;;;;;;;;;;;;;4921842;28;19918;-73
2023/01/31 14:29:38;;;;;;;;;;;;;;;;;;4934558;28;19988;-73
2023/01/31 14:32:04;;;;;;;;;;;;;;;;;;4918556;28;19914;-75
2023/01/31 14:34:30;;;;;;;;;;;;;;;;;;4935595;28;20332;-73
2023/01/31 14:36:56;;;;;;;;;;;;;;;;;;4932540;28;19922;-73
2023/01/31 14:39:22;;;;;;;;;;;;;;;;;;4932873;28;20450;-73
2023/01/31 14:41:48;;;;;;;;;;;;;;;;;;4933874;28;19998;-73
2023/01/31 14:44:14;;;;;;;;;;;;;;;;;;4932682;28;20474;-73
2023/01/31 14:46:40;;;;;;;;;;;;;;;;;;4934606;28;19934;-74
2023/01/31 14:49:06;;;;;;;;;;;;;;;;;;4920599;28;20268;-74
2023/01/31 14:51:33;;;;;;;;;;;;;;;;;;4936865;28;20298;-74
2023/01/31 14:53:59;;;;;;;;;;;;;;;;;;4938250;28;20301;-74
2023/01/31 14:56:26;;;;;;;;;;;;;;;;;;4938045;28;20752;-74
2023/01/31 14:58:52;;;;;;;;;;;;;;;;;;4920005;28;20337;-74
2023/01/31 15:01:18;;;;;;;;;;;;;;;;;;4938502;28;19921;-72
2023/01/31 15:03:44;;;;;;;;;;;;;;;;;;4938826;28;20821;-74
2023/01/31 15:06:10;;;;;;;;;;;;;;;;;;4935368;28;19919;-72
2023/01/31 15:08:36;;;;;;;;;;;;;;;;;;4920814;28;20246;-72
2023/01/31 15:11:02;;;;;;;;;;;;;;;;;;4938400;28;20352;-72
2023/01/31 15:13:28;;;;;;;;;;;;;;;;;;4936581;28;19921;-72
2023/01/31 15:15:54;;;;;;;;;;;;;;;;;;4918207;28;20338;-71
2023/01/31 15:18:25;;;;;;;;;;;;;;;;;;4918701;28;19941;-71
2023/01/31 15:20:51;;;;;;;;;;;;;;;;;;4917908;28;20251;-73
2023/01/31 15:23:17;;;;;;;;;;;;;;;;;;4926181;28;20215;-73
2023/01/31 15:25:43;;;;;;;;;;;;;;;;;;4925367;28;20367;-73
2023/01/31 15:28:09;;;;;;;;;;;;;;;;;;4935190;28;20084;-72
2023/01/31 15:30:35;;;;;;;;;;;;;;;;;;4937101;28;20070;-71
2023/01/31 15:33:01;;;;;;;;;;;;;;;;;;4936261;28;20241;-72
2023/01/31 15:35:27;;;;;;;;;;;;;;;;;;4919998;28;20071;-72
2023/01/31 15:37:53;;;;;;;;;;;;;;;;;;4934406;28;20021;-72
2023/01/31 15:40:19;;;;;;;;;;;;;;;;;;4920480;28;20434;-71
2023/01/31 15:42:45;;;;;;;;;;;;;;;;;;4938380;28;19914;-72
2023/01/31 15:45:11;;;;;;;;;;;;;;;;;;4923349;28;20451;-71
2023/01/31 15:47:37;;;;;;;;;;;;;;;;;;4938262;28;20375;-72
2023/01/31 15:50:03;;;;;;;;;;;;;;;;;;4932999;28;20076;-71
2023/01/31 15:52:33;;;;;;;;;;;;;;;;;;4921906;28;19924;-71
2023/01/31 15:54:59;;;;;;;;;;;;;;;;;;4942485;28;20195;-71
2023/01/31 15:57:25;;;;;;;;;;;;;;;;;;4922655;28;20226;-72
2023/01/31 15:59:51;;;;;;;;;;;;;;;;;;4933984;28;20377;-72
2023/01/31 16:02:17;;;;;;;;;;;;;;;;;;4937969;28;20055;-71
2023/01/31 16:04:43;;;;;;;;;;;;;;;;;;4935518;28;20551;-71
2023/01/31 16:07:09;;;;;;;;;;;;;;;;;;4933642;28;19914;-71
2023/01/31 16:09:37;;;;;;;;;;;;;;;;;;4936628;28;19918;-70
2023/01/31 16:12:03;;;;;;;;;;;;;;;;;;4918489;28;19922;-71
2023/01/31 16:14:29;;;;;;;;;;;;;;;;;;4933909;28;19913;-71
2023/01/31 16:16:55;;;;;;;;;;;;;;;;;;4915226;28;20545;-71
2023/01/31 16:19:21;;;;;;;;;;;;;;;;;;4936037;28;20199;-70
2023/01/31 16:21:47;;;;;;;;;;;;;;;;;;4936385;28;20529;-73
2023/01/31 16:24:13;;;;;;;;;;;;;;;;;;4933163;28;19913;-71
2023/01/31 16:26:39;;;;;;;;;;;;;;;;;;4917390;28;20294;-71
2023/01/31 16:29:05;;;;;;;;;;;;;;;;;;4929434;28;19921;-73
2023/01/31 16:31:31;;;;;;;;;;;;;;;;;;4937476;28;20375;-71
2023/01/31 16:33:57;;;;;;;;;;;;;;;;;;4936036;28;19918;-72
2023/01/31 16:36:23;;;;;;;;;;;;;;;;;;4937297;28;19925;-71
2023/01/31 16:38:49;;;;;;;;;;;;;;;;;;4934744;28;20188;-72
2023/01/31 16:41:15;;;;;;;;;;;;;;;;;;4933359;28;19949;-70
2023/01/31 16:43:41;;;;;;;;;;;;;;;;;;4918318;28;19914;-72
2023/01/31 16:46:07;;;;;;;;;;;;;;;;;;4917224;28;19921;-72
2023/01/31 16:48:33;;;;;;;;;;;;;;;;;;4918884;28;20452;-70